Timeline UpdatesTrip UpdatesNews PostsPvt Posts♥♥Travel TipsAdmin PostsConv PostsFollowed PostsChat RequestsBlog PostsPNR Posts

Disclaimer
Search
 
 
Fri Dec 19, 2014 07:03:26 ISTHomeTrainsΣChainsAtlasPNRForumGalleryNewsFAQTripsMembersLoginFeedback
PNR Super Search

Ticket PNR Status Inquiry - PNR: 640-xxxxxxx (E-Ticket)

OLD STATUS

Status Last Updated on: Jan 30 2012 (6:41PM) IST

Date of Journey: Tue Jan 31, 2012   Class: AC 2-tier - 2A   (Total Seats available for this Class/Quota: Avbl >63)
Passenger 1: Can/Mod (Booking Status: W/L 16,GNWL)
Chart NOT Prepared

Bagmati SF Weekly Express/12577

Travel Time: 52h 30m    35 halts    Distance: 2902 km    Avg Speed: 55 km/hr
Type: SuperFast
Zone: ECR/East Central
Departs @ 16:10 (Avg on time)
Platform# 1
  T    
Darbhanga Junction/DBG 
Arrives @ 20:40 +2 nights (Avg 59m late)
Platform# 5
    T  
Bangalore City Junction/SBC 

35 halts. 466 intermediate Stations between Darbhanga Junction and Bangalore City Junction

Show ALL intermediate Stations  Show Old Time-Table

#TrkCodeStation NameX/OArrivesAvgDepartsAvgHaltPFDay#KmSpeedElevZoneAddress
1|--|DBGDarbhanga Junction (5)»  -16:10+0110.04554mECRDarbhanga, Bihar
2|--|SPJSamastipur Junction (9)X  17:00+1717:05+185m5137.46155mECRSamastipur, Bihar
3/==/BJUBarauni Junction (9)X  17:55+3918:15+4820m8188.03349mECRBegusarai, Bihar
4/--/MKAMokama Junction (4)  18:53+1:2118:55+1:212m21108.77148mECRPatna, Bihar
5/==/PNBEPatna Junction (10)X  20:10+1:5420:20+1:5510m61197.93857mECRPatna 800001, Bihar
6/==/DNRDanapur (5)X  20:35+2:3420:37+2:342m--1207.38258mECRKhagaul, Bihar
7/==/ARAAra Junction (3)  21:06+2:3021:08+2:302m--1246.87963mECRDistt: Bhojpur Ph 06182-233411, Bihar
8/==/BXRBuxar (3)  22:00+2:3822:02+2:452m--1315.35667mECRBuxar, Bihar
9/==/MGSMughal Sarai Junction (8)  23:42+2:2623:52+2:2710m41409.26083mECRDistt: Chandauli Pin 232101, Uttar Pradesh
10/==/MZPMirzapur (3)X  00:59 00:55+2:3901:00+2:461 5m--2472.46988mNCRMirzapur, Uttar Pradesh
11/==/COIChheoki Junction (3)  02:14 02:10+3:0902:15+3:161 5m--2552.85296mNCRDist.-Allahabad, Uttar Pradesh
12%==%STASatna Junction (3)  05:30+2:3705:40+2:3810m12722.884322mWCRSatna, Madhya Pradesh
13%==|KTEKatni Junction (6)  06:50+2:5606:55+3:005m12821.247387mWCRKatni, Madhya Pradesh
14|==|JBPJabalpur Junction (4)X  08:50+2:3009:00+2:3710m12912.099416mWCRJabalpur, Madhya Pradesh
15|==|NUNarsinghpur (2)  09:43 09:51+3:1309:45 09:53+3:132m22996.175365mWCRNarsimhapur, Madhya Pradesh
16|==|PPIPipariya (3)  11:08+3:0111:10+3:022m221089.838339mWCRPiparia, Madhya Pradesh
17|==|ETItarsi Junction (7)12:55+2:3113:05+2:3310m321157.062329mWCRItarsi 461111, Madhya Pradesh
18/==/GDYAGhoradongri (3)X  14:14 14:13+3:0614:15+3:071 2m221227.449407mCRBetul, Madhya Pradesh
19/==/BZUBetul (3)O  15:01 14:59+3:0715:02+3:071 3m121263.365644mCRBetul, Madhya Pradesh
20/==/PARPandhurna (2)  16:22+2:5516:23+2:561m121349.854481mCRDistt: Chhindwara, Madhya Pradesh
21/==/NGPNagpur Junction (8)  18:20+2:4218:45+2:3325m221454.264314mCRNagpur 440001, Maharashtra
22/==/SEGMSewagram Junction (5)  19:57+2:4319:58+2:441m121530.465279mCRWardha, Maharashtra
23/==/CDChandrapur Maharashtra (3)  21:49 21:47+2:5021:50+2:491 3m--21649.017194mCRChandrapur 442401, Maharashtra
24/==/BPQBalharshah Junction (5)X  22:40+2:2922:50+2:4810m--21662.876188mCRBallarpur. Ph : 07172 - 240341, Maharashtra
25/==/SKZRSirpur Kaghaznagar (3)  23:45+1:5523:46+1:551m221732.573181mSCRAdilabad Dist., Telangana
26/==/RDMRamagundam (3)  00:45+3:0400:46+3:041m231804.645170mSCRKarimnagar Dist. Ph : 08728 - 255237, Telangana
27/==/WLWarangal (3)  03:00+2:0703:02+2:082m131905.750271mSCRWarangal., Telangana
28/==/BZAVijayawada Junction (10)X  07:10+1:0907:30+1:0720m532113.77724mSCRVijayawada 520001, Andhra Pradesh
29/==/OGLOngole (3)  09:18+1:1609:19+1:171m332251.96012mSCROngole, Andhra Pradesh
30/==/GDRGudur Junction (3)X  11:55+1:0512:00+1:035m132407.26119mSCRGudur, Andhra Pradesh
31/==/MASChennai Central (12)14:15+1:0014:40+5925m532544.6719mSRChennai 600003, Tamil Nadu
32/==/AJJArakkonam Junction (8)  15:38+1:0615:40+1:062m132613.27691mSRArakkonam, Tamil Nadu
33/==/KPDKatpadi Junction (5)  16:28+1:1116:30+1:112m132674.061213mSRVellore 632007, Tamil Nadu
34/==/JTJJolarpettai Junction (5)  17:53+1:2517:55+1:252m--32757.967405mSRJolarpettai, Tamil Nadu
35/==/BNCEBangalore East (2)X  19:59 19:58+020:00+01 2m132895.511915mSWRBangalore, Karnataka
36/==/BNCBangalore Cantt. (4)  20:18 20:13+1:2620:20 20:15+1:262m--32898.011929mSWRBengaluru-560052, Karnataka
37/==/SBCBangalore City Junction (10)•X  20:40+5920:55+5815m532902.540903mSWRBengaluru-560023, Karnataka
38/==%KGIKengeri (4)X  21:13-21:14-1m--32914.670804mSWRBengaluru, Karnataka
39%==%MYAMandya (3)  22:23+2:3322:25+2:332m--32995.441672mSWRMandya, Karnataka
40|=-|MYSMysore Junction (6)  23:30+1:11---33039.7-760mSWRMysuru Tel No 0821-2521751, Karnataka
Scroll to Top
Scroll to Bottom


Go to Mobile site